Time;durP1;ratioP1;P1;durP2;ratioP2;P2;SDS_P1;SDS_P2;PMS_P1;PMS_P2;Temp;Humidity;BMP_temperature;BMP_pressure;BME280_temperature;BME280_humidity;BME280_pressure;Samples;Min_cycle;Max_cycle;Signal;HPM_P1;HPM_P2
2022/03/06 00:00:41;;;;;;;30.98;22.27;;;1.90;89.50;;;;;;2092481;28;20458;-67
2022/03/06 00:01:41;;;;;;;32.20;22.10;;;1.90;90.00;;;;;;2092010;28;20464;-66
2022/03/06 00:02:43;;;;;;;32.35;22.83;;;1.90;89.70;;;;;;2092332;28;20024;-67
2022/03/06 00:03:50;;;;;;;29.55;20.55;;;1.90;89.90;;;;;;2093084;28;20079;-67
2022/03/06 00:04:50;;;;;;;30.92;21.08;;;1.80;89.70;;;;;;2096510;28;20055;-66
2022/03/06 00:05:51;;;;;;;30.33;20.80;;;1.80;90.00;;;;;;2093855;28;20024;-67
2022/03/06 00:06:51;;;;;;;30.73;20.35;;;1.80;90.00;;;;;;2094212;28;20052;-66
2022/03/06 00:07:53;;;;;;;33.20;22.15;;;1.80;90.00;;;;;;2092617;28;20051;-67
2022/03/06 00:08:54;;;;;;;30.98;21.65;;;1.80;89.90;;;;;;2089625;28;20025;-67
2022/03/06 00:09:54;;;;;;;31.90;21.98;;;1.80;90.00;;;;;;2093959;28;20106;-67
2022/03/06 00:10:57;;;;;;;33.25;23.15;;;1.70;90.10;;;;;;2094592;28;20505;-67
2022/03/06 00:11:58;;;;;;;30.65;21.63;;;1.70;90.60;;;;;;2095441;28;20107;-66
2022/03/06 00:12:59;;;;;;;29.40;21.23;;;1.70;90.70;;;;;;2094326;28;20027;-67
2022/03/06 00:13:59;;;;;;;31.35;21.20;;;1.70;90.70;;;;;;2096922;28;20084;-67
2022/03/06 00:15:00;;;;;;;32.05;20.80;;;1.70;90.80;;;;;;2092491;28;20025;-67
2022/03/06 00:16:01;;;;;;;28.80;20.38;;;1.70;90.80;;;;;;2093955;28;20021;-67
2022/03/06 00:17:01;;;;;;;31.80;21.33;;;1.70;90.80;;;;;;2094656;28;20036;-67
2022/03/06 00:18:02;;;;;;;27.15;20.08;;;1.70;90.90;;;;;;2095644;28;20050;-67
2022/03/06 00:19:02;;;;;;;31.30;20.27;;;1.70;91.00;;;;;;2097031;28;20032;-66
2022/03/06 00:20:08;;;;;;;31.65;22.52;;;1.70;90.50;;;;;;2095778;28;20024;-67
2022/03/06 00:21:11;;;;;;;30.88;21.02;;;1.60;90.60;;;;;;2091376;28;20556;-67
2022/03/06 00:22:11;;;;;;;28.92;20.67;;;1.60;90.90;;;;;;2090550;28;20048;-67
2022/03/06 00:23:12;;;;;;;34.05;22.38;;;1.60;91.00;;;;;;2092117;28;20028;-67
2022/03/06 00:24:12;;;;;;;32.65;22.52;;;1.60;91.30;;;;;;2092952;28;20381;-67
2022/03/06 00:25:13;;;;;;;27.67;19.75;;;1.60;91.60;;;;;;2092760;28;20039;-67
2022/03/06 00:26:13;;;;;;;30.08;19.80;;;1.60;91.50;;;;;;2094112;28;20449;-67
2022/03/06 00:27:14;;;;;;;31.45;20.25;;;1.60;91.50;;;;;;2093978;28;20021;-67
2022/03/06 00:28:14;;;;;;;28.75;20.48;;;1.60;91.40;;;;;;2098672;28;20040;-67
2022/03/06 00:29:15;;;;;;;26.88;20.42;;;1.60;91.40;;;;;;2090901;28;20111;-67
2022/03/06 00:30:15;;;;;;;27.73;20.27;;;1.50;91.40;;;;;;2092220;28;20035;-67
2022/03/06 00:31:16;;;;;;;28.92;20.90;;;1.50;91.30;;;;;;2093150;28;20025;-66
2022/03/06 00:32:16;;;;;;;30.73;20.67;;;1.50;91.20;;;;;;2089605;28;20654;-67
2022/03/06 00:33:17;;;;;;;31.50;21.00;;;1.50;91.20;;;;;;2092573;28;20188;-67
2022/03/06 00:34:18;;;;;;;33.15;20.67;;;1.50;91.20;;;;;;2090032;28;20386;-66
2022/03/06 00:35:18;;;;;;;34.28;20.92;;;1.50;91.20;;;;;;2092297;28;20021;-67
2022/03/06 00:36:19;;;;;;;31.83;21.52;;;1.50;91.30;;;;;;2093532;28;20461;-67
2022/03/06 00:37:19;;;;;;;30.67;21.73;;;1.50;91.20;;;;;;2090188;28;20036;-67
2022/03/06 00:38:20;;;;;;;28.08;19.95;;;1.40;91.30;;;;;;2089710;28;20051;-67
2022/03/06 00:39:20;;;;;;;28.77;20.45;;;1.40;91.40;;;;;;2091496;28;20109;-67
2022/03/06 00:40:21;;;;;;;28.98;19.63;;;1.50;91.60;;;;;;2092525;28;20039;-67
2022/03/06 00:41:23;;;;;;;33.88;21.35;;;1.50;91.70;;;;;;2092753;28;20021;-67
2022/03/06 00:42:24;;;;;;;31.50;20.52;;;1.40;91.80;;;;;;2093633;28;20753;-67
2022/03/06 00:43:24;;;;;;;27.50;20.42;;;1.40;91.90;;;;;;2098407;28;20371;-67
2022/03/06 00:44:25;;;;;;;30.85;21.70;;;1.40;92.10;;;;;;2093061;28;20443;-67
2022/03/06 00:45:25;;;;;;;29.25;20.63;;;1.40;92.10;;;;;;2097392;28;20028;-67
2022/03/06 00:46:26;;;;;;;29.70;21.27;;;1.40;92.20;;;;;;2091413;28;20040;-67
2022/03/06 00:47:27;;;;;;;31.90;21.90;;;1.40;92.10;;;;;;2097838;28;20020;-67
2022/03/06 00:48:27;;;;;;;28.65;20.10;;;1.40;92.20;;;;;;2091366;28;20040;-67
2022/03/06 00:49:28;;;;;;;32.30;20.27;;;1.40;92.10;;;;;;2091917;28;20028;-66
2022/03/06 00:50:28;;;;;;;30.90;20.25;;;1.30;92.00;;;;;;2091835;28;20032;-67
2022/03/06 00:51:30;;;;;;;30.45;20.02;;;1.40;92.10;;;;;;2095563;28;20020;-67
2022/03/06 00:52:30;;;;;;;29.48;20.08;;;1.30;92.20;;;;;;2096869;28;20020;-67
2022/03/06 00:53:31;;;;;;;28.77;19.77;;;1.30;92.10;;;;;;2095417;28;20032;-66
2022/03/06 00:54:31;;;;;;;29.10;19.70;;;1.30;92.20;;;;;;2097363;28;20040;-67
2022/03/06 00:55:32;;;;;;;30.58;20.33;;;1.30;92.30;;;;;;2098675;28;20060;-67
2022/03/06 00:56:33;;;;;;;32.15;23.10;;;1.30;92.40;;;;;;2095107;28;20025;-67
2022/03/06 00:57:34;;;;;;;35.17;23.70;;;1.30;92.60;;;;;;2093551;28;20021;-67
2022/03/06 00:58:35;;;;;;;31.08;20.95;;;1.30;93.00;;;;;;2093872;28;20017;-67
2022/03/06 00:59:35;;;;;;;30.38;21.27;;;1.30;93.00;;;;;;2096529;28;20065;-67
2022/03/06 01:00:39;;;;;;;32.38;22.13;;;1.30;93.10;;;;;;2095310;28;20082;-66
2022/03/06 01:01:40;;;;;;;31.35;20.98;;;1.30;93.20;;;;;;2095618;28;20025;-67
2022/03/06 01:02:41;;;;;;;34.45;23.60;;;1.20;93.10;;;;;;2096124;28;20589;-67
2022/03/06 01:03:41;;;;;;;29.95;20.55;;;1.20;93.50;;;;;;2096291;28;20479;-67
2022/03/06 01:04:42;;;;;;;28.85;20.48;;;1.20;93.40;;;;;;2095340;28;20027;-67
2022/03/06 01:05:43;;;;;;;30.98;21.20;;;1.20;93.40;;;;;;2095107;28;20047;-67
2022/03/06 01:06:44;;;;;;;30.63;21.35;;;1.20;93.30;;;;;;2094930;28;20024;-67
2022/03/06 01:07:44;;;;;;;31.48;21.65;;;1.20;93.40;;;;;;2093970;28;20477;-67
2022/03/06 01:08:45;;;;;;;30.65;21.65;;;1.20;93.50;;;;;;2097761;28;20474;-67
2022/03/06 01:09:45;;;;;;;34.70;22.35;;;1.20;93.50;;;;;;2094884;28;20020;-66
2022/03/06 01:10:49;;;;;;;33.28;21.45;;;1.10;93.60;;;;;;2097610;28;20009;-67
2022/03/06 01:11:49;;;;;;;31.45;23.25;;;1.10;93.90;;;;;;2090410;28;20496;-67
2022/03/06 01:12:50;;;;;;;32.53;22.92;;;1.10;94.00;;;;;;2094015;28;20502;-67
2022/03/06 01:13:51;;;;;;;29.33;20.73;;;1.10;94.40;;;;;;2095609;28;20554;-67
2022/03/06 01:14:51;;;;;;;33.55;23.85;;;1.10;94.10;;;;;;2093313;28;20024;-66
2022/03/06 01:15:52;;;;;;;31.00;20.85;;;1.10;94.40;;;;;;2095614;28;20020;-67
2022/03/06 01:16:53;;;;;;;31.63;20.83;;;1.10;94.30;;;;;;2092312;28;20503;-67
2022/03/06 01:17:53;;;;;;;30.48;21.48;;;1.10;94.10;;;;;;2095432;28;20028;-67
2022/03/06 01:18:54;;;;;;;37.35;23.63;;;1.10;93.80;;;;;;2095011;28;20039;-67
2022/03/06 01:19:54;;;;;;;33.17;23.05;;;1.10;94.20;;;;;;2090397;28;20036;-67
2022/03/06 01:20:55;;;;;;;34.78;23.52;;;1.10;94.30;;;;;;2095677;28;20120;-66
2022/03/06 01:21:55;;;;;;;33.95;23.02;;;1.10;94.40;;;;;;2094877;28;20385;-67
2022/03/06 01:22:56;;;;;;;32.60;22.85;;;1.00;94.50;;;;;;2096100;28;20043;-67
2022/03/06 01:23:56;;;;;;;31.85;23.17;;;1.00;94.50;;;;;;2092137;28;20025;-67
2022/03/06 01:24:57;;;;;;;34.05;22.95;;;1.00;94.50;;;;;;2095880;28;20036;-67
2022/03/06 01:25:57;;;;;;;29.95;21.25;;;1.00;94.80;;;;;;2094246;28;20648;-67
2022/03/06 01:26:58;;;;;;;37.05;25.45;;;1.00;95.00;;;;;;2100176;28;20033;-67
2022/03/06 01:28:00;;;;;;;36.55;23.38;;;1.00;95.40;;;;;;2092300;28;20025;-67
2022/03/06 01:29:00;;;;;;;35.20;23.42;;;1.00;96.20;;;;;;2094190;28;20142;-67
2022/03/06 01:30:02;;;;;;;33.08;22.25;;;1.00;95.80;;;;;;2094432;28;20024;-67
2022/03/06 01:31:03;;;;;;;33.22;21.38;;;1.00;95.70;;;;;;2094274;28;20038;-67
2022/03/06 01:32:04;;;;;;;32.42;22.80;;;1.00;95.50;;;;;;2095171;28;20035;-67
2022/03/06 01:33:04;;;;;;;35.85;23.85;;;1.00;95.40;;;;;;2093131;28;20023;-67
2022/03/06 01:34:05;;;;;;;37.47;23.45;;;0.90;95.60;;;;;;2095694;28;20017;-67
2022/03/06 01:35:06;;;;;;;36.03;24.48;;;0.90;96.10;;;;;;2093663;28;20028;-67
2022/03/06 01:36:06;;;;;;;32.33;22.02;;;0.90;96.20;;;;;;2093909;28;20024;-67
2022/03/06 01:37:07;;;;;;;31.67;23.17;;;0.90;96.20;;;;;;2092999;28;20016;-67
2022/03/06 01:38:07;;;;;;;32.92;23.27;;;0.90;96.20;;;;;;2093114;28;20465;-67
2022/03/06 01:39:08;;;;;;;32.70;23.10;;;0.90;96.50;;;;;;2096715;28;20103;-67
2022/03/06 01:40:09;;;;;;;36.20;24.13;;;0.90;96.50;;;;;;2094274;28;20103;-67
2022/03/06 01:41:10;;;;;;;30.85;22.95;;;0.90;96.80;;;;;;2095038;28;20024;-67
2022/03/06 01:42:10;;;;;;;37.17;25.25;;;0.90;97.00;;;;;;2095026;28;20024;-67
2022/03/06 01:43:11;;;;;;;37.25;25.20;;;0.90;97.20;;;;;;2093009;28;20035;-67
2022/03/06 01:44:13;;;;;;;33.47;22.45;;;0.90;97.60;;;;;;2092872;28;20028;-67
2022/03/06 01:45:19;;;;;;;32.30;21.50;;;0.80;97.80;;;;;;2094709;28;20020;-67
2022/03/06 01:46:20;;;;;;;29.30;21.52;;;0.80;97.70;;;;;;2094267;28;20055;-66
2022/03/06 01:47:41;;;;;;;29.02;20.75;;;0.80;97.20;;;;;;2096872;28;20147;-67
2022/03/06 01:48:42;;;;;;;34.53;22.65;;;0.80;98.20;;;;;;2094412;28;20050;-67
2022/03/06 01:49:42;;;;;;;31.92;21.92;;;0.80;97.50;;;;;;2093579;28;20031;-67
2022/03/06 01:50:44;;;;;;;30.90;22.05;;;0.80;97.70;;;;;;2096172;28;20071;-67
2022/03/06 01:51:45;;;;;;;32.75;21.88;;;0.70;97.50;;;;;;2091463;28;20024;-67
2022/03/06 01:52:48;;;;;;;31.30;20.98;;;0.70;97.30;;;;;;2101222;28;20029;-67
2022/03/06 01:53:49;;;;;;;31.80;20.42;;;0.70;97.30;;;;;;2095028;28;20408;-67
2022/03/06 01:54:49;;;;;;;31.60;21.77;;;0.70;97.00;;;;;;2092217;28;20020;-67
2022/03/06 01:55:50;;;;;;;31.83;20.67;;;0.70;97.00;;;;;;2093450;28;20078;-67
2022/03/06 01:56:50;;;;;;;30.13;20.38;;;0.70;97.30;;;;;;2092105;28;20032;-67
2022/03/06 01:58:00;;;;;;;30.35;21.30;;;0.70;97.20;;;;;;2093676;28;20085;-67
2022/03/06 01:59:03;;;;;;;31.63;20.77;;;0.70;97.50;;;;;;2096098;28;20078;-67
2022/03/06 02:00:07;;;;;;;33.03;22.30;;;0.60;97.10;;;;;;2094006;28;20032;-67
2022/03/06 02:01:07;;;;;;;33.80;22.38;;;0.60;97.30;;;;;;2094283;28;20028;-67
2022/03/06 02:02:08;;;;;;;32.30;21.95;;;0.60;97.30;;;;;;2092823;28;20032;-67
2022/03/06 02:03:09;;;;;;;30.75;22.30;;;0.60;98.00;;;;;;2094894;28;20033;-67
2022/03/06 02:04:10;;;;;;;32.42;22.73;;;0.60;98.30;;;;;;2095699;28;20063;-67
2022/03/06 02:05:11;;;;;;;29.75;20.63;;;0.60;98.30;;;;;;2093894;28;20025;-67
2022/03/06 02:06:12;;;;;;;31.17;22.30;;;0.60;98.60;;;;;;2094182;28;20020;-67
2022/03/06 02:07:13;;;;;;;29.85;21.30;;;0.60;98.20;;;;;;2091840;28;20024;-67
2022/03/06 02:08:14;;;;;;;31.98;21.67;;;0.60;98.10;;;;;;2092649;28;20373;-67
2022/03/06 02:09:15;;;;;;;28.30;20.05;;;0.60;98.10;;;;;;2096089;28;20024;-67
2022/03/06 02:10:16;;;;;;;28.05;20.77;;;0.60;98.00;;;;;;2091833;28;20468;-67
2022/03/06 02:11:17;;;;;;;29.90;21.15;;;0.60;98.00;;;;;;2092900;28;20052;-67
2022/03/06 02:12:23;;;;;;;31.23;22.00;;;0.60;98.30;;;;;;2097083;28;20036;-67
2022/03/06 02:13:25;;;;;;;29.33;21.35;;;0.60;98.60;;;;;;2097751;28;20439;-67
2022/03/06 02:14:26;;;;;;;31.27;20.73;;;0.60;98.80;;;;;;2095456;28;20024;-67
2022/03/06 02:15:27;;;;;;;28.42;20.48;;;0.60;98.60;;;;;;2097385;28;20039;-67
2022/03/06 02:16:27;;;;;;;30.92;21.30;;;0.60;98.70;;;;;;2095151;28;20048;-67
2022/03/06 02:17:28;;;;;;;27.70;20.40;;;0.60;98.50;;;;;;2099631;28;20023;-67
2022/03/06 02:18:29;;;;;;;33.13;20.58;;;0.60;98.30;;;;;;2091069;28;20128;-67
2022/03/06 02:19:29;;;;;;;31.40;20.85;;;0.60;98.40;;;;;;2094721;28;20078;-67
2022/03/06 02:20:30;;;;;;;32.97;22.23;;;0.60;98.40;;;;;;2093341;28;20180;-67
2022/03/06 02:21:31;;;;;;;31.30;20.95;;;0.50;98.30;;;;;;2097868;28;20031;-67
2022/03/06 02:22:34;;;;;;;33.22;22.10;;;0.50;98.30;;;;;;2095539;28;20040;-67
2022/03/06 02:23:36;;;;;;;29.40;21.08;;;0.50;98.30;;;;;;2090954;28;20029;-67
2022/03/06 02:24:36;;;;;;;31.33;21.67;;;0.50;98.50;;;;;;2096736;28;20078;-67
2022/03/06 02:25:37;;;;;;;29.35;21.35;;;0.50;98.50;;;;;;2093086;28;20086;-67
2022/03/06 02:26:38;;;;;;;35.50;23.38;;;0.50;99.30;;;;;;2094131;28;20080;-67
2022/03/06 02:27:39;;;;;;;26.85;20.52;;;0.50;99.70;;;;;;2091698;28;20083;-67
2022/03/06 02:28:41;;;;;;;26.55;20.73;;;0.50;99.40;;;;;;2092968;28;20068;-67
2022/03/06 02:29:43;;;;;;;28.70;21.13;;;0.50;99.30;;;;;;2095390;28;20031;-67
2022/03/06 02:30:44;;;;;;;32.17;22.65;;;0.50;99.30;;;;;;2090736;28;20017;-67
2022/03/06 02:31:45;;;;;;;32.22;22.23;;;0.40;99.80;;;;;;2093535;28;20032;-67
2022/03/06 02:32:47;;;;;;;35.33;22.50;;;0.40;99.90;;;;;;2092748;28;20020;-67
2022/03/06 02:33:48;;;;;;;31.50;23.20;;;0.50;99.90;;;;;;2093740;28;20032;-67
2022/03/06 02:34:50;;;;;;;30.75;22.55;;;0.40;99.90;;;;;;2093663;28;20032;-67
2022/03/06 02:35:51;;;;;;;30.77;22.73;;;0.40;99.90;;;;;;2091152;28;20032;-67
2022/03/06 02:36:51;;;;;;;32.22;21.58;;;0.40;99.90;;;;;;2090254;28;20032;-67
2022/03/06 02:37:52;;;;;;;31.50;21.98;;;0.40;99.90;;;;;;2094398;28;20369;-67
2022/03/06 02:38:53;;;;;;;34.42;21.98;;;0.30;99.90;;;;;;2090194;28;20032;-67
2022/03/06 02:39:53;;;;;;;28.95;21.33;;;0.30;99.90;;;;;;2098773;28;20031;-67
2022/03/06 02:40:54;;;;;;;30.48;21.70;;;0.30;99.90;;;;;;2094228;28;20400;-67
2022/03/06 02:41:55;;;;;;;29.42;21.35;;;0.30;99.90;;;;;;2094854;28;20090;-67
2022/03/06 02:42:56;;;;;;;30.63;21.20;;;0.30;99.90;;;;;;2090046;28;20091;-67
2022/03/06 02:43:56;;;;;;;33.10;22.20;;;0.40;99.90;;;;;;2094066;28;20063;-67
2022/03/06 02:44:59;;;;;;;28.42;20.17;;;0.30;99.90;;;;;;2094860;28;20029;-67
2022/03/06 02:45:59;;;;;;;31.45;21.85;;;0.30;99.90;;;;;;2095583;28;20029;-67
2022/03/06 02:47:00;;;;;;;29.27;20.35;;;0.30;99.90;;;;;;2094369;28;20116;-67
2022/03/06 02:48:01;;;;;;;30.92;20.73;;;0.30;99.90;;;;;;2100261;28;20032;-67
2022/03/06 02:49:01;;;;;;;31.92;20.33;;;0.30;99.90;;;;;;2089809;28;20521;-66
2022/03/06 02:50:08;;;;;;;32.58;23.15;;;0.30;99.90;;;;;;2094319;28;20485;-67
2022/03/06 02:51:09;;;;;;;30.63;21.75;;;0.30;99.90;;;;;;2094252;28;20026;-67
2022/03/06 02:52:09;;;;;;;28.50;20.75;;;0.30;99.90;;;;;;2094540;28;20032;-67
2022/03/06 02:53:10;;;;;;;29.92;20.98;;;0.30;99.90;;;;;;2092843;28;20523;-67
2022/03/06 02:54:12;;;;;;;28.55;21.40;;;0.30;99.90;;;;;;2093595;28;20093;-67
2022/03/06 02:55:14;;;;;;;30.85;22.42;;;0.30;99.90;;;;;;2098639;28;20020;-67
2022/03/06 02:56:15;;;;;;;28.90;21.15;;;0.30;99.90;;;;;;2093751;28;20399;-67
2022/03/06 02:57:15;;;;;;;33.90;22.10;;;0.30;99.90;;;;;;2085061;28;20055;-68
2022/03/06 02:58:16;;;;;;;28.02;19.73;;;0.30;99.90;;;;;;2095586;28;20108;-67
2022/03/06 02:59:16;;;;;;;27.50;19.20;;;0.20;99.90;;;;;;2096982;28;20551;-67
2022/03/06 03:00:19;;;;;;;30.25;20.88;;;0.30;99.90;;;;;;2091690;28;20033;-67
2022/03/06 03:01:20;;;;;;;26.10;19.58;;;0.30;99.90;;;;;;2094635;28;20028;-67
2022/03/06 03:02:21;;;;;;;27.58;20.35;;;0.30;99.90;;;;;;2092782;28;20469;-67
2022/03/06 03:03:22;;;;;;;32.15;22.15;;;0.20;99.90;;;;;;2098043;28;20411;-67
2022/03/06 03:04:23;;;;;;;28.63;19.67;;;0.20;99.90;;;;;;2094075;28;20032;-67
2022/03/06 03:05:23;;;;;;;30.02;19.98;;;0.30;99.90;;;;;;2095909;28;20544;-67
2022/03/06 03:06:24;;;;;;;31.55;19.73;;;0.30;99.90;;;;;;2091834;28;20086;-67
2022/03/06 03:07:24;;;;;;;32.63;22.95;;;0.30;99.90;;;;;;2094137;28;20056;-67
2022/03/06 03:08:25;;;;;;;32.15;23.45;;;0.20;99.90;;;;;;2093118;28;20028;-67
2022/03/06 03:09:26;;;;;;;29.15;20.52;;;0.20;99.90;;;;;;2095841;28;20025;-67
2022/03/06 03:10:26;;;;;;;29.77;20.40;;;0.20;99.90;;;;;;2096139;28;20016;-67
2022/03/06 03:11:29;;;;;;;29.70;20.55;;;0.20;99.90;;;;;;2095533;28;20511;-67
2022/03/06 03:12:30;;;;;;;29.38;20.02;;;0.20;99.90;;;;;;2092289;28;20409;-67
2022/03/06 03:13:30;;;;;;;28.15;20.20;;;0.20;99.90;;;;;;2095121;28;20025;-67
2022/03/06 03:14:32;;;;;;;27.80;19.77;;;0.20;99.90;;;;;;2095921;28;20026;-67
2022/03/06 03:15:32;;;;;;;28.02;19.80;;;0.20;99.90;;;;;;2097235;28;20078;-67
2022/03/06 03:16:33;;;;;;;26.73;18.73;;;0.20;99.90;;;;;;2094306;28;20055;-67
2022/03/06 03:17:34;;;;;;;28.73;20.17;;;0.20;99.90;;;;;;2091005;28;20029;-67
2022/03/06 03:18:34;;;;;;;29.33;21.27;;;0.20;99.90;;;;;;2095462;28;20039;-67
2022/03/06 03:19:35;;;;;;;27.67;19.25;;;0.20;99.90;;;;;;2100670;28;20028;-67
2022/03/06 03:20:35;;;;;;;29.02;19.65;;;0.20;99.90;;;;;;2095739;28;20081;-67
2022/03/06 03:21:36;;;;;;;27.88;20.02;;;0.20;99.90;;;;;;2097600;28;20039;-67
2022/03/06 03:22:37;;;;;;;27.15;19.83;;;0.20;99.90;;;;;;2097567;28;20100;-67
2022/03/06 03:23:37;;;;;;;27.77;19.80;;;0.20;99.90;;;;;;2096923;28;20543;-67
2022/03/06 03:24:38;;;;;;;28.23;20.23;;;0.20;99.90;;;;;;2094330;28;20031;-67
2022/03/06 03:25:38;;;;;;;26.73;19.65;;;0.20;99.90;;;;;;2092440;28;20503;-67
2022/03/06 03:26:39;;;;;;;28.88;21.52;;;0.20;99.90;;;;;;2089791;28;20036;-67
2022/03/06 03:27:40;;;;;;;28.35;19.42;;;0.20;99.90;;;;;;2097467;28;20127;-67
2022/03/06 03:28:40;;;;;;;31.42;20.52;;;0.20;99.90;;;;;;2095409;28;20048;-67
2022/03/06 03:29:41;;;;;;;31.02;21.50;;;0.20;99.90;;;;;;2093264;28;20020;-66
2022/03/06 03:30:41;;;;;;;25.80;18.83;;;0.20;99.90;;;;;;2095740;28;20630;-67
2022/03/06 03:31:42;;;;;;;31.08;21.58;;;0.20;99.90;;;;;;2096566;28;20025;-67
2022/03/06 03:32:43;;;;;;;30.58;21.67;;;0.20;99.90;;;;;;2089612;28;20116;-67
2022/03/06 03:33:44;;;;;;;30.15;21.95;;;0.20;99.90;;;;;;2093948;28;20096;-67
2022/03/06 03:34:44;;;;;;;31.42;23.00;;;0.20;99.90;;;;;;2096254;28;20025;-67
2022/03/06 03:35:45;;;;;;;28.73;21.38;;;0.20;99.90;;;;;;2097714;28;20043;-66
2022/03/06 03:36:45;;;;;;;31.98;22.55;;;0.20;99.90;;;;;;2095128;28;20035;-67
2022/03/06 03:37:46;;;;;;;30.13;21.73;;;0.20;99.90;;;;;;2096733;28;20528;-67
2022/03/06 03:38:46;;;;;;;35.15;23.30;;;0.20;99.90;;;;;;2091150;28;20027;-67
2022/03/06 03:39:47;;;;;;;33.15;24.73;;;0.20;99.90;;;;;;2095369;28;20025;-67
2022/03/06 03:40:48;;;;;;;30.55;20.90;;;0.20;99.90;;;;;;2094893;28;20033;-67
2022/03/06 03:41:48;;;;;;;30.27;22.50;;;0.20;99.90;;;;;;2092716;28;20033;-67
2022/03/06 03:42:49;;;;;;;32.25;21.88;;;0.20;99.90;;;;;;2092833;28;20468;-67
2022/03/06 03:43:50;;;;;;;34.05;22.10;;;0.20;99.90;;;;;;2095618;28;20440;-67
2022/03/06 03:44:51;;;;;;;29.38;21.15;;;0.20;99.90;;;;;;2094241;28;20028;-67
2022/03/06 03:45:52;;;;;;;29.13;20.40;;;0.20;99.90;;;;;;2095377;28;20552;-67
2022/03/06 03:46:53;;;;;;;35.95;25.40;;;0.20;99.90;;;;;;2094627;28;20025;-67
2022/03/06 03:47:54;;;;;;;38.30;26.15;;;0.20;99.90;;;;;;2098699;28;20147;-67
2022/03/06 03:48:54;;;;;;;35.05;24.27;;;0.20;99.90;;;;;;2093395;28;20028;-67
2022/03/06 03:49:55;;;;;;;31.92;24.63;;;0.20;99.90;;;;;;2092767;28;20015;-67
2022/03/06 03:50:56;;;;;;;38.50;26.35;;;0.20;99.90;;;;;;2097227;28;20021;-67
2022/03/06 03:51:57;;;;;;;36.03;25.45;;;0.20;99.90;;;;;;2094531;28;20039;-67
2022/03/06 03:52:57;;;;;;;36.05;25.42;;;0.20;99.90;;;;;;2094375;28;20468;-67
2022/03/06 03:53:58;;;;;;;36.25;25.95;;;0.20;99.90;;;;;;2093506;28;20031;-67
2022/03/06 03:54:58;;;;;;;39.00;25.85;;;0.30;99.90;;;;;;2095481;28;20123;-67
2022/03/06 03:55:59;;;;;;;37.20;24.17;;;0.30;99.90;;;;;;2093592;28;20052;-67
2022/03/06 03:57:00;;;;;;;34.47;24.67;;;0.30;99.90;;;;;;2096157;28;20024;-66
2022/03/06 03:58:00;;;;;;;38.20;25.00;;;0.30;99.90;;;;;;2097123;28;20013;-67
2022/03/06 03:59:01;;;;;;;35.25;24.88;;;0.30;99.90;;;;;;2093233;28;20029;-67
2022/03/06 04:00:04;;;;;;;36.78;25.60;;;0.30;99.90;;;;;;2096254;28;20033;-67
2022/03/06 04:01:05;;;;;;;36.22;25.75;;;0.30;99.90;;;;;;2096490;28;20078;-67
2022/03/06 04:02:05;;;;;;;37.83;24.80;;;0.30;99.90;;;;;;2094356;28;20073;-67
2022/03/06 04:03:06;;;;;;;35.70;24.35;;;0.30;99.90;;;;;;2099481;28;20075;-67
2022/03/06 04:04:06;;;;;;;38.08;25.25;;;0.30;99.90;;;;;;2095623;28;20044;-67
2022/03/06 04:05:07;;;;;;;37.90;25.75;;;0.30;99.90;;;;;;2091157;28;20604;-67
2022/03/06 04:06:08;;;;;;;35.70;25.90;;;0.40;99.90;;;;;;2088182;28;20043;-67
2022/03/06 04:07:09;;;;;;;35.60;25.70;;;0.40;99.90;;;;;;2099991;28;20020;-67
2022/03/06 04:08:09;;;;;;;35.22;25.63;;;0.40;99.90;;;;;;2094617;28;20063;-67
2022/03/06 04:09:10;;;;;;;32.33;24.40;;;0.40;99.90;;;;;;2093745;28;20027;-67
2022/03/06 04:10:11;;;;;;;36.30;25.13;;;0.40;99.90;;;;;;2093444;28;20029;-67
2022/03/06 04:11:11;;;;;;;36.15;24.92;;;0.40;99.90;;;;;;2091969;28;20656;-67
2022/03/06 04:12:12;;;;;;;36.28;25.17;;;0.50;99.90;;;;;;2091237;28;20020;-67
2022/03/06 04:13:13;;;;;;;34.20;25.73;;;0.40;99.90;;;;;;2090560;28;20028;-67
2022/03/06 04:14:13;;;;;;;37.38;24.70;;;0.50;99.90;;;;;;2095424;28;20021;-67
2022/03/06 04:15:14;;;;;;;37.45;25.27;;;0.50;99.90;;;;;;2091122;28;20648;-67
2022/03/06 04:16:14;;;;;;;30.90;23.30;;;0.50;99.90;;;;;;2093593;28;20031;-66
2022/03/06 04:17:15;;;;;;;35.38;25.25;;;0.50;99.90;;;;;;2095038;28;20021;-67
2022/03/06 04:18:15;;;;;;;37.65;25.15;;;0.50;99.90;;;;;;2093463;28;20046;-67
2022/03/06 04:19:16;;;;;;;34.35;24.98;;;0.60;99.90;;;;;;2097227;28;20024;-67
2022/03/06 04:20:16;;;;;;;34.15;24.10;;;0.60;99.90;;;;;;2093326;28;20036;-67
2022/03/06 04:21:17;;;;;;;33.33;24.95;;;0.60;99.90;;;;;;2089666;28;20083;-66
2022/03/06 04:22:18;;;;;;;35.35;25.75;;;0.60;99.90;;;;;;2093743;28;20085;-67
2022/03/06 04:23:18;;;;;;;33.58;24.38;;;0.60;99.90;;;;;;2093002;28;20025;-67
2022/03/06 04:24:19;;;;;;;31.42;24.45;;;0.60;99.90;;;;;;2091338;28;20033;-67
2022/03/06 04:25:19;;;;;;;37.63;25.33;;;0.60;99.90;;;;;;2095007;28;20105;-67
2022/03/06 04:26:20;;;;;;;31.95;23.23;;;0.70;99.90;;;;;;2091616;28;20094;-67
2022/03/06 04:27:20;;;;;;;32.97;24.10;;;0.70;99.90;;;;;;2096539;28;20082;-67
2022/03/06 04:28:21;;;;;;;36.30;25.45;;;0.70;99.90;;;;;;2093633;28;20540;-67
2022/03/06 04:29:21;;;;;;;34.38;25.02;;;0.70;99.90;;;;;;2090581;28;20021;-67
2022/03/06 04:30:22;;;;;;;32.38;22.77;;;0.70;99.90;;;;;;2094671;28;20109;-67
2022/03/06 04:31:22;;;;;;;32.13;23.27;;;0.70;99.90;;;;;;2093421;28;20364;-67
2022/03/06 04:32:23;;;;;;;32.63;23.60;;;0.80;99.90;;;;;;2096956;28;20021;-67
2022/03/06 04:33:24;;;;;;;30.98;23.17;;;0.80;99.90;;;;;;2093135;28;20385;-67
2022/03/06 04:34:24;;;;;;;32.08;23.73;;;0.80;99.90;;;;;;2094353;28;20962;-67
2022/03/06 04:35:25;;;;;;;35.92;25.85;;;0.80;99.90;;;;;;2094147;28;20032;-67
2022/03/06 04:36:26;;;;;;;34.70;24.50;;;0.80;99.90;;;;;;2094399;28;20027;-67
2022/03/06 04:37:26;;;;;;;33.33;24.42;;;0.80;99.90;;;;;;2095668;28;20100;-67
2022/03/06 04:38:27;;;;;;;32.70;22.80;;;0.80;99.90;;;;;;2096560;28;20035;-67
2022/03/06 04:39:28;;;;;;;32.47;24.75;;;0.80;99.90;;;;;;2095670;28;20074;-67
2022/03/06 04:40:29;;;;;;;31.88;24.75;;;0.80;99.90;;;;;;2096336;28;20667;-67
2022/03/06 04:41:29;;;;;;;32.58;23.45;;;0.80;99.90;;;;;;2093409;28;20119;-67
2022/03/06 04:42:30;;;;;;;33.75;23.88;;;0.90;99.90;;;;;;2097500;28;20024;-66
2022/03/06 04:43:30;;;;;;;31.17;23.60;;;0.90;99.90;;;;;;2094811;28;20480;-67
2022/03/06 04:44:31;;;;;;;33.22;22.95;;;0.90;99.90;;;;;;2091490;28;20118;-67
2022/03/06 04:45:31;;;;;;;34.03;24.05;;;0.90;99.90;;;;;;2097506;28;20024;-67
2022/03/06 04:46:32;;;;;;;30.70;23.92;;;0.90;99.90;;;;;;2096004;28;20107;-67
2022/03/06 04:47:32;;;;;;;35.10;23.38;;;0.90;99.90;;;;;;2094188;28;20051;-67
2022/03/06 04:48:33;;;;;;;32.33;24.70;;;0.90;99.90;;;;;;2096537;28;20031;-67
2022/03/06 04:49:34;;;;;;;33.35;23.23;;;0.90;99.90;;;;;;2093866;28;20397;-67
2022/03/06 04:50:34;;;;;;;34.60;23.90;;;0.90;99.90;;;;;;2094110;28;20028;-67
2022/03/06 04:51:35;;;;;;;30.08;22.92;;;0.90;99.90;;;;;;2097777;28;20372;-67
2022/03/06 04:52:36;;;;;;;29.08;22.00;;;0.90;99.90;;;;;;2092915;28;20443;-67
2022/03/06 04:53:36;;;;;;;28.48;22.20;;;0.90;99.90;;;;;;2100626;28;20410;-67
2022/03/06 04:54:37;;;;;;;33.58;23.27;;;0.90;99.90;;;;;;2092600;28;20036;-67
2022/03/06 04:55:38;;;;;;;33.35;24.00;;;0.90;99.90;;;;;;2091026;28;20025;-67
2022/03/06 04:56:38;;;;;;;31.13;23.05;;;0.90;99.90;;;;;;2095082;28;20036;-67
2022/03/06 04:57:39;;;;;;;28.60;22.00;;;0.90;99.90;;;;;;2094454;28;20035;-67
2022/03/06 04:58:39;;;;;;;27.90;22.05;;;0.90;99.90;;;;;;2097697;28;20029;-67
2022/03/06 04:59:40;;;;;;;30.50;22.58;;;0.90;99.90;;;;;;2099528;28;20021;-66
2022/03/06 05:00:40;;;;;;;31.88;23.60;;;0.90;99.90;;;;;;2096223;28;20024;-67
2022/03/06 05:01:41;;;;;;;32.42;23.67;;;0.90;99.90;;;;;;2096218;28;20024;-67
2022/03/06 05:02:42;;;;;;;33.10;23.80;;;0.90;99.90;;;;;;2095743;28;20090;-66
2022/03/06 05:03:43;;;;;;;30.33;23.05;;;0.90;99.90;;;;;;2096368;28;20019;-67
2022/03/06 05:04:43;;;;;;;31.88;23.02;;;0.90;99.90;;;;;;2094124;28;20021;-67
2022/03/06 05:05:44;;;;;;;32.50;23.33;;;0.90;99.90;;;;;;2090789;28;20586;-67
2022/03/06 05:06:44;;;;;;;31.52;22.00;;;0.90;99.90;;;;;;2099514;28;20436;-67
2022/03/06 05:07:45;;;;;;;27.60;22.88;;;0.90;99.90;;;;;;2096830;28;20039;-67
2022/03/06 05:08:45;;;;;;;30.20;21.48;;;0.90;99.90;;;;;;2096951;28;20142;-67
2022/03/06 05:09:46;;;;;;;31.95;23.15;;;0.80;99.90;;;;;;2099308;28;20021;-67
2022/03/06 05:10:47;;;;;;;35.50;25.13;;;0.80;99.90;;;;;;2099268;28;20020;-67
2022/03/06 05:11:47;;;;;;;29.83;22.27;;;0.80;99.90;;;;;;2092499;28;20108;-67
2022/03/06 05:12:48;;;;;;;30.15;22.67;;;0.80;99.90;;;;;;2094003;28;20097;-67